Kleinsee, South Africa
Current Conditions -  °F | °C
As of 9:00 PM on Wednesday 17 Dec 2014 (Local Time) from FAUP Reporting Station
NA  
Wind Chill: 81°   Ceiling: NA
Heat Index: 81°   Visibility: NA
Dew Point: 43°   Wind: 5mph
Humidity: 26%   Direction: 70°ENE
Pressure: 29.91"   Gusts: NA
Location:  29.68°S, 17.07°E
Report Text: FAUP 171900Z AUTO 07004KT //// // ////// 27/06 Q1013
Loading
Personal Weather Stations






























Interactive Weather Map New forecast layout! Learn more

10-Day Weather Forecast

Advertisements
Track Severe Weather on mobile